createdAt,value
2022-09-23T00:00:34.210Z,1005.99
2022-09-23T00:01:34.309Z,1005.98
2022-09-23T00:02:34.287Z,1005.97
2022-09-23T00:03:34.289Z,1005.96
2022-09-23T00:04:34.164Z,1005.96
2022-09-23T00:05:34.151Z,1005.96
2022-09-23T00:06:34.142Z,1005.94
2022-09-23T00:07:34.151Z,1005.94
2022-09-23T00:08:34.150Z,1005.93
2022-09-23T00:09:34.132Z,1005.93
2022-09-23T00:10:34.117Z,1005.93
2022-09-23T00:11:34.098Z,1005.93
2022-09-23T00:12:34.076Z,1005.91
2022-09-23T00:13:34.087Z,1005.91
2022-09-23T00:14:34.404Z,1005.91
2022-09-23T00:15:34.052Z,1005.90
2022-09-23T00:16:34.466Z,1005.90
2022-09-23T00:17:34.059Z,1005.90
2022-09-23T00:18:34.018Z,1005.90
2022-09-23T00:19:34.035Z,1005.89
2022-09-23T00:20:33.996Z,1005.88
2022-09-23T00:21:33.992Z,1005.87
2022-09-23T00:22:34.012Z,1005.86
2022-09-23T00:23:33.971Z,1005.85
2022-09-23T00:24:33.985Z,1005.83
2022-09-23T00:25:33.991Z,1005.81
2022-09-23T00:26:33.941Z,1005.80
2022-09-23T00:27:33.935Z,1005.79
2022-09-23T00:28:33.911Z,1005.79
2022-09-23T00:29:34.000Z,1005.79
2022-09-23T00:30:33.914Z,1005.78
2022-09-23T00:31:33.883Z,1005.78
2022-09-23T00:32:33.873Z,1005.78
2022-09-23T00:33:33.870Z,1005.78
2022-09-23T00:34:33.875Z,1005.78
2022-09-23T00:35:34.029Z,1005.76
2022-09-23T00:36:33.823Z,1005.76
2022-09-23T00:37:33.831Z,1005.76
2022-09-23T00:38:33.811Z,1005.76
2022-09-23T00:39:33.824Z,1005.74
2022-09-23T00:40:33.815Z,1005.73
2022-09-23T00:41:33.780Z,1005.73
2022-09-23T00:42:33.752Z,1005.74
2022-09-23T00:43:33.774Z,1005.73
2022-09-23T00:44:33.757Z,1005.72
2022-09-23T00:45:33.766Z,1005.73
2022-09-23T00:46:33.811Z,1005.72
2022-09-23T00:47:33.723Z,1005.73
2022-09-23T00:48:33.706Z,1005.72
2022-09-23T00:49:33.709Z,1005.72
2022-09-23T00:50:33.676Z,1005.71
2022-09-23T00:51:33.707Z,1005.70
2022-09-23T00:52:33.674Z,1005.69
2022-09-23T00:53:33.675Z,1005.68
2022-09-23T00:54:33.651Z,1005.67
2022-09-23T00:55:33.628Z,1005.66
2022-09-23T00:56:33.620Z,1005.66
2022-09-23T00:57:33.608Z,1005.65
2022-09-23T00:58:33.622Z,1005.64
2022-09-23T00:59:33.617Z,1005.64
2022-09-23T01:00:33.565Z,1005.65
2022-09-23T01:01:33.649Z,1005.65
2022-09-23T01:02:33.644Z,1005.65
2022-09-23T01:03:33.549Z,1005.64
2022-09-23T01:04:33.743Z,1005.64
2022-09-23T01:05:33.517Z,1005.63
2022-09-23T01:06:33.493Z,1005.63
2022-09-23T01:07:33.511Z,1005.63
2022-09-23T01:08:33.489Z,1005.63
2022-09-23T01:09:33.507Z,1005.64
2022-09-23T01:10:33.479Z,1005.63
2022-09-23T01:11:33.465Z,1005.62
2022-09-23T01:12:33.444Z,1005.61
2022-09-23T01:13:33.439Z,1005.60
2022-09-23T01:14:33.434Z,1005.58
2022-09-23T01:15:33.430Z,1005.56
2022-09-23T01:16:33.462Z,1005.55
2022-09-23T01:17:33.415Z,1005.54
2022-09-23T01:18:33.388Z,1005.52
2022-09-23T01:19:33.474Z,1005.51
2022-09-23T01:20:33.376Z,1005.50
2022-09-23T01:21:33.343Z,1005.50
2022-09-23T01:22:33.346Z,1005.48
2022-09-23T01:23:33.340Z,1005.48
2022-09-23T01:24:33.322Z,1005.47
2022-09-23T01:25:33.331Z,1005.45
2022-09-23T01:26:33.307Z,1005.44
2022-09-23T01:27:33.286Z,1005.43
2022-09-23T01:28:33.331Z,1005.42
2022-09-23T01:29:33.458Z,1005.41
2022-09-23T01:30:33.311Z,1005.41
2022-09-23T01:31:33.261Z,1005.41
2022-09-23T01:32:33.230Z,1005.41
2022-09-23T01:33:33.220Z,1005.41
2022-09-23T01:34:33.221Z,1005.41
2022-09-23T01:35:33.226Z,1005.41
2022-09-23T01:36:33.227Z,1005.42
2022-09-23T01:37:33.175Z,1005.41
2022-09-23T01:38:33.196Z,1005.41
2022-09-23T01:39:33.173Z,1005.41
2022-09-23T01:40:33.250Z,1005.40
2022-09-23T01:41:33.153Z,1005.40
2022-09-23T01:42:33.141Z,1005.40
2022-09-23T01:43:33.106Z,1005.40
2022-09-23T01:44:33.120Z,1005.40
2022-09-23T01:45:33.082Z,1005.40
2022-09-23T01:46:33.087Z,1005.39
2022-09-23T01:47:33.083Z,1005.37
2022-09-23T01:48:33.117Z,1005.35
2022-09-23T01:49:33.056Z,1005.34
2022-09-23T01:50:33.049Z,1005.32
2022-09-23T01:51:33.039Z,1005.31
2022-09-23T01:52:33.029Z,1005.30
2022-09-23T01:53:33.041Z,1005.30
2022-09-23T01:54:33.000Z,1005.29
2022-09-23T01:55:32.992Z,1005.28
2022-09-23T01:56:32.998Z,1005.28
2022-09-23T01:57:32.963Z,1005.26
2022-09-23T01:58:32.971Z,1005.27
2022-09-23T01:59:32.947Z,1005.27
2022-09-23T02:00:32.947Z,1005.27
2022-09-23T02:01:33.261Z,1005.28
2022-09-23T02:02:32.955Z,1005.28
2022-09-23T02:03:32.899Z,1005.28
2022-09-23T02:04:32.893Z,1005.27
2022-09-23T02:05:32.899Z,1005.27
2022-09-23T02:06:32.880Z,1005.27
2022-09-23T02:07:32.877Z,1005.27
2022-09-23T02:08:32.855Z,1005.26
2022-09-23T02:09:32.829Z,1005.25
2022-09-23T02:10:32.825Z,1005.24
2022-09-23T02:11:32.818Z,1005.24
2022-09-23T02:12:32.826Z,1005.22
2022-09-23T02:13:32.794Z,1005.20
2022-09-23T02:14:32.788Z,1005.19
2022-09-23T02:15:32.763Z,1005.18
2022-09-23T02:16:32.819Z,1005.17
2022-09-23T02:17:32.769Z,1005.16
2022-09-23T02:18:32.740Z,1005.15
2022-09-23T02:19:32.733Z,1005.15
2022-09-23T02:20:32.728Z,1005.14
2022-09-23T02:21:32.705Z,1005.14
2022-09-23T02:22:32.719Z,1005.14
2022-09-23T02:23:32.693Z,1005.13
2022-09-23T02:24:32.687Z,1005.14
2022-09-23T02:25:32.652Z,1005.12
2022-09-23T02:26:32.661Z,1005.12
2022-09-23T02:27:32.643Z,1005.11
2022-09-23T02:28:32.656Z,1005.11
2022-09-23T02:29:32.615Z,1005.10
2022-09-23T02:30:32.615Z,1005.09
2022-09-23T02:31:32.642Z,1005.08
2022-09-23T02:32:32.594Z,1005.06
2022-09-23T02:33:32.610Z,1005.03
2022-09-23T02:34:32.574Z,1005.02
2022-09-23T02:35:32.551Z,1004.99
2022-09-23T02:36:32.597Z,1004.99
2022-09-23T02:37:32.540Z,1004.98
2022-09-23T02:38:32.533Z,1004.97
2022-09-23T02:39:32.513Z,1004.96
2022-09-23T02:40:32.556Z,1004.95
2022-09-23T02:41:32.503Z,1004.95
2022-09-23T02:42:32.520Z,1004.94
2022-09-23T02:43:32.471Z,1004.95
2022-09-23T02:44:32.571Z,1004.93
2022-09-23T02:45:32.481Z,1004.92
2022-09-23T02:46:32.443Z,1004.90
2022-09-23T02:47:32.435Z,1004.90
2022-09-23T02:48:32.449Z,1004.91
2022-09-23T02:49:32.481Z,1004.90
2022-09-23T02:50:32.431Z,1004.89
2022-09-23T02:51:32.383Z,1004.87
2022-09-23T02:52:32.406Z,1004.85
2022-09-23T02:53:32.368Z,1004.85
2022-09-23T02:54:32.357Z,1004.84
2022-09-23T02:55:32.391Z,1004.83
2022-09-23T02:56:32.357Z,1004.81
2022-09-23T02:57:32.330Z,1004.80
2022-09-23T02:58:32.318Z,1004.79
2022-09-23T02:59:32.309Z,1004.78
2022-09-23T03:00:32.300Z,1004.77
2022-09-23T03:01:32.340Z,1004.76
2022-09-23T03:02:32.374Z,1004.75
2022-09-23T03:03:32.294Z,1004.74
2022-09-23T03:04:32.387Z,1004.73
2022-09-23T03:05:32.232Z,1004.73
2022-09-23T03:06:32.235Z,1004.73
2022-09-23T03:07:32.209Z,1004.74
2022-09-23T03:08:32.211Z,1004.75
2022-09-23T03:09:32.185Z,1004.75
2022-09-23T03:10:32.208Z,1004.74
2022-09-23T03:11:32.195Z,1004.73
2022-09-23T03:12:32.171Z,1004.73
2022-09-23T03:13:32.147Z,1004.73
2022-09-23T03:14:32.147Z,1004.72
2022-09-23T03:15:32.132Z,1004.70
2022-09-23T03:16:32.196Z,1004.68
2022-09-23T03:17:32.094Z,1004.66
2022-09-23T03:18:32.090Z,1004.65
2022-09-23T03:19:32.094Z,1004.64
2022-09-23T03:20:32.088Z,1004.64
2022-09-23T03:21:32.085Z,1004.64
2022-09-23T03:22:32.063Z,1004.64
2022-09-23T03:23:32.038Z,1004.64
2022-09-23T03:24:32.047Z,1004.64
2022-09-23T03:25:32.034Z,1004.65
2022-09-23T03:26:32.020Z,1004.66
2022-09-23T03:27:32.006Z,1004.66
2022-09-23T03:28:32.004Z,1004.65
2022-09-23T03:29:31.978Z,1004.65
2022-09-23T03:30:31.990Z,1004.64
2022-09-23T03:31:32.026Z,1004.63
2022-09-23T03:32:31.958Z,1004.64
2022-09-23T03:33:31.938Z,1004.62
2022-09-23T03:34:31.941Z,1004.63
2022-09-23T03:35:31.926Z,1004.62
2022-09-23T03:36:31.920Z,1004.62
2022-09-23T03:37:31.892Z,1004.61
2022-09-23T03:38:31.886Z,1004.61
2022-09-23T03:39:31.884Z,1004.62
2022-09-23T03:40:31.920Z,1004.62
2022-09-23T03:41:31.859Z,1004.62
2022-09-23T03:42:31.851Z,1004.62
2022-09-23T03:43:35.228Z,1004.61
2022-09-23T03:44:31.836Z,1004.60
2022-09-23T03:45:31.830Z,1004.59
2022-09-23T03:46:31.798Z,1004.58
2022-09-23T03:47:31.794Z,1004.57
2022-09-23T03:48:31.782Z,1004.56
2022-09-23T03:49:31.764Z,1004.54
2022-09-23T03:50:32.220Z,1004.53
2022-09-23T03:51:31.738Z,1004.53
2022-09-23T03:52:31.793Z,1004.52
2022-09-23T03:53:31.719Z,1004.51
2022-09-23T03:54:31.714Z,1004.50
2022-09-23T03:55:31.713Z,1004.48
2022-09-23T03:56:31.691Z,1004.46
2022-09-23T03:58:42.079Z,1004.42
2022-09-23T03:59:43.034Z,1004.41
2022-09-23T04:00:43.114Z,1004.39
2022-09-23T04:01:43.087Z,1004.37
2022-09-23T04:02:43.014Z,1004.36
2022-09-23T04:03:42.991Z,1004.35
2022-09-23T04:04:43.000Z,1004.34
2022-09-23T04:05:42.978Z,1004.33
2022-09-23T04:06:42.980Z,1004.32
2022-09-23T04:07:42.980Z,1004.31
2022-09-23T04:08:43.005Z,1004.30
2022-09-23T04:09:42.929Z,1004.30
2022-09-23T04:10:42.933Z,1004.30
2022-09-23T04:11:42.928Z,1004.31
2022-09-23T04:12:42.900Z,1004.31
2022-09-23T04:13:42.888Z,1004.31
2022-09-23T04:14:42.878Z,1004.32
2022-09-23T04:15:42.869Z,1004.32
2022-09-23T04:16:42.918Z,1004.32
2022-09-23T04:17:42.873Z,1004.32
2022-09-23T04:18:42.842Z,1004.32
2022-09-23T04:19:42.827Z,1004.31
2022-09-23T04:20:42.819Z,1004.31
2022-09-23T04:21:42.797Z,1004.31
2022-09-23T04:22:42.845Z,1004.31
2022-09-23T04:23:42.803Z,1004.32
2022-09-23T04:24:42.786Z,1004.32
2022-09-23T04:25:42.764Z,1004.32
2022-09-23T04:26:42.769Z,1004.31
2022-09-23T04:27:42.744Z,1004.29
2022-09-23T04:28:42.921Z,1004.29
2022-09-23T04:29:42.718Z,1004.27
2022-09-23T04:30:42.719Z,1004.25
2022-09-23T04:31:42.723Z,1004.25
2022-09-23T04:32:43.309Z,1004.23
2022-09-23T04:33:42.667Z,1004.22
2022-09-23T04:34:42.701Z,1004.22
2022-09-23T04:35:42.652Z,1004.21
2022-09-23T04:36:42.653Z,1004.21
2022-09-23T04:37:42.654Z,1004.20
2022-09-23T04:38:42.637Z,1004.19
2022-09-23T04:39:42.637Z,1004.19
2022-09-23T04:40:42.702Z,1004.17
2022-09-23T04:41:42.588Z,1004.14
2022-09-23T04:42:42.587Z,1004.12
2022-09-23T04:43:42.572Z,1004.08
2022-09-23T04:44:42.657Z,1004.06
2022-09-23T04:45:42.599Z,1004.04
2022-09-23T04:46:42.622Z,1004.03
2022-09-23T04:47:42.528Z,1004.02
2022-09-23T04:48:42.489Z,1004.02
2022-09-23T04:49:42.510Z,1004.01
2022-09-23T04:50:42.500Z,1004.01
2022-09-23T04:51:42.507Z,1004.01
2022-09-23T04:52:42.489Z,1004.02
2022-09-23T04:53:42.465Z,1004.01
2022-09-23T04:54:42.450Z,1004.01
2022-09-23T04:55:42.449Z,1004.01
2022-09-23T04:56:42.417Z,1004.00
2022-09-23T04:57:42.369Z,1003.99
2022-09-23T04:58:42.363Z,1004.00
2022-09-23T04:59:42.358Z,1004.00
2022-09-23T05:00:42.373Z,1003.99
2022-09-23T05:01:42.488Z,1003.98
2022-09-23T05:02:42.330Z,1003.96
2022-09-23T05:03:42.356Z,1003.95
2022-09-23T05:04:42.307Z,1003.93
2022-09-23T05:05:42.298Z,1003.93
2022-09-23T05:06:42.294Z,1003.92
2022-09-23T05:07:42.414Z,1003.93
2022-09-23T05:08:42.268Z,1003.93
2022-09-23T05:09:42.246Z,1003.94
2022-09-23T05:10:42.244Z,1003.95
2022-09-23T05:11:42.259Z,1003.96
2022-09-23T05:12:42.238Z,1003.97
2022-09-23T05:13:42.206Z,1003.96
2022-09-23T05:14:42.199Z,1003.96
2022-09-23T05:15:42.187Z,1003.96
2022-09-23T05:16:42.274Z,1003.96
2022-09-23T05:17:42.196Z,1003.97
2022-09-23T05:18:42.174Z,1003.99
2022-09-23T05:19:42.140Z,1003.99
2022-09-23T05:20:42.145Z,1004.00
2022-09-23T05:21:42.158Z,1004.01
2022-09-23T05:22:42.153Z,1004.01
2022-09-23T05:23:42.125Z,1004.02
2022-09-23T05:24:42.120Z,1004.04
2022-09-23T05:25:42.107Z,1004.05
2022-09-23T05:26:42.138Z,1004.06
2022-09-23T05:27:42.053Z,1004.07
2022-09-23T05:28:42.097Z,1004.07
2022-09-23T05:29:42.034Z,1004.08
2022-09-23T05:30:42.040Z,1004.09
2022-09-23T05:31:42.089Z,1004.09
2022-09-23T05:32:42.024Z,1004.10
2022-09-23T05:33:42.067Z,1004.09
2022-09-23T05:34:42.010Z,1004.10
2022-09-23T05:35:41.988Z,1004.10
2022-09-23T05:36:41.972Z,1004.11
2022-09-23T05:37:41.956Z,1004.11
2022-09-23T05:38:41.951Z,1004.12
2022-09-23T05:39:41.945Z,1004.12
2022-09-23T05:40:42.043Z,1004.12
2022-09-23T05:41:41.910Z,1004.13
2022-09-23T05:42:41.927Z,1004.13
2022-09-23T05:43:41.895Z,1004.12
2022-09-23T05:44:41.919Z,1004.12
2022-09-23T05:45:41.899Z,1004.12
2022-09-23T05:46:41.953Z,1004.12
2022-09-23T05:47:41.883Z,1004.12
2022-09-23T05:48:41.897Z,1004.14
2022-09-23T05:49:58.476Z,1004.15
2022-09-23T05:50:41.854Z,1004.15
2022-09-23T05:51:41.875Z,1004.16
2022-09-23T05:52:41.889Z,1004.15
2022-09-23T05:53:41.814Z,1004.14
2022-09-23T05:54:41.828Z,1004.14
2022-09-23T05:55:41.771Z,1004.14
2022-09-23T05:56:41.787Z,1004.13
2022-09-23T05:57:41.748Z,1004.11
2022-09-23T05:58:41.770Z,1004.11
2022-09-23T05:59:41.727Z,1004.11
2022-09-23T06:00:41.731Z,1004.12
2022-09-23T06:01:41.896Z,1004.13
2022-09-23T06:02:41.806Z,1004.12
2022-09-23T06:03:41.686Z,1004.11
2022-09-23T06:04:41.700Z,1004.10
2022-09-23T06:05:41.663Z,1004.09
2022-09-23T06:06:41.664Z,1004.09
2022-09-23T06:07:41.666Z,1004.10
2022-09-23T06:08:41.654Z,1004.10
2022-09-23T06:09:41.624Z,1004.10
2022-09-23T06:10:41.621Z,1004.10
2022-09-23T06:11:41.605Z,1004.10
2022-09-23T06:12:41.597Z,1004.11
2022-09-23T06:13:41.599Z,1004.11
2022-09-23T06:14:41.614Z,1004.12
2022-09-23T06:15:41.640Z,1004.12
2022-09-23T06:16:41.563Z,1004.13
2022-09-23T06:17:41.535Z,1004.14
2022-09-23T06:18:41.541Z,1004.15
2022-09-23T06:19:41.536Z,1004.16
2022-09-23T06:20:41.526Z,1004.15
2022-09-23T06:21:41.495Z,1004.15
2022-09-23T06:22:41.522Z,1004.13
2022-09-23T06:23:42.126Z,1004.13
2022-09-23T06:24:41.513Z,1004.12
2022-09-23T06:25:41.522Z,1004.11
2022-09-23T06:26:41.461Z,1004.11
2022-09-23T06:27:41.435Z,1004.10
2022-09-23T06:28:41.440Z,1004.09
2022-09-23T06:29:41.446Z,1004.08
2022-09-23T06:30:41.415Z,1004.07
2022-09-23T06:31:41.487Z,1004.08
2022-09-23T06:32:41.400Z,1004.08
2022-09-23T06:33:41.383Z,1004.09
2022-09-23T06:34:51.123Z,1004.10
2022-09-23T06:35:43.818Z,1004.09
2022-09-23T06:36:44.529Z,1004.09
2022-09-23T06:37:41.337Z,1004.08
2022-09-23T06:38:41.326Z,1004.06
2022-09-23T06:39:41.319Z,1004.06
2022-09-23T06:40:41.409Z,1004.06
2022-09-23T06:41:41.283Z,1004.06
2022-09-23T06:42:41.293Z,1004.05
2022-09-23T06:43:41.269Z,1004.05
2022-09-23T06:44:41.262Z,1004.04
2022-09-23T06:45:41.247Z,1004.05
2022-09-23T06:46:41.339Z,1004.05
2022-09-23T06:47:41.227Z,1004.06
2022-09-23T06:48:45.945Z,1004.05
2022-09-23T06:49:41.204Z,1004.04
2022-09-23T06:50:41.213Z,1004.02
2022-09-23T06:51:41.235Z,1004.00
2022-09-23T06:52:41.173Z,1004.00
2022-09-23T06:53:41.171Z,1004.00
2022-09-23T06:54:41.170Z,1004.01
2022-09-23T06:55:41.148Z,1004.03
2022-09-23T06:56:41.130Z,1004.03
2022-09-23T06:57:41.150Z,1004.04
2022-09-23T06:58:41.117Z,1004.04
2022-09-23T06:59:41.111Z,1004.04
2022-09-23T07:00:41.100Z,1004.05
2022-09-23T07:01:41.241Z,1004.06
2022-09-23T07:02:41.220Z,1004.07
2022-09-23T07:03:41.067Z,1004.07
2022-09-23T07:04:41.085Z,1004.07
2022-09-23T07:05:41.128Z,1004.07
2022-09-23T07:06:41.022Z,1004.07
2022-09-23T07:07:41.052Z,1004.06
2022-09-23T07:08:41.006Z,1004.07
2022-09-23T07:09:41.055Z,1004.08
2022-09-23T07:10:41.020Z,1004.09
2022-09-23T07:11:40.984Z,1004.10
2022-09-23T07:12:41.011Z,1004.09
2022-09-23T07:13:41.005Z,1004.10
2022-09-23T07:14:40.963Z,1004.09
2022-09-23T07:15:41.004Z,1004.07
2022-09-23T07:16:40.920Z,1004.07
2022-09-23T07:17:40.927Z,1004.08
2022-09-23T07:18:40.901Z,1004.10
2022-09-23T07:19:40.926Z,1004.10
2022-09-23T07:20:40.891Z,1004.11
2022-09-23T07:21:40.885Z,1004.11
2022-09-23T07:22:40.863Z,1004.11
2022-09-23T07:23:40.861Z,1004.12
2022-09-23T07:24:40.849Z,1004.12
2022-09-23T07:25:40.929Z,1004.13
2022-09-23T07:26:45.480Z,1004.13
2022-09-23T07:27:40.885Z,1004.14
2022-09-23T07:28:40.809Z,1004.14
2022-09-23T07:29:47.795Z,1004.15
2022-09-23T07:30:50.822Z,1004.17
2022-09-23T07:31:40.906Z,1004.18
2022-09-23T07:32:48.262Z,1004.20
2022-09-23T07:33:40.817Z,1004.20
2022-09-23T07:34:40.743Z,1004.20
2022-09-23T07:35:40.731Z,1004.20
2022-09-23T07:36:41.048Z,1004.19
2022-09-23T07:37:40.716Z,1004.19
2022-09-23T07:38:45.277Z,1004.19
2022-09-23T07:39:40.689Z,1004.18
2022-09-23T07:40:40.695Z,1004.18
2022-09-23T07:41:40.703Z,1004.17
2022-09-23T07:42:40.655Z,1004.16
2022-09-23T07:43:40.638Z,1004.17
2022-09-23T07:44:40.627Z,1004.17
2022-09-23T07:45:40.632Z,1004.17
2022-09-23T07:46:40.659Z,1004.18
2022-09-23T07:47:40.688Z,1004.19
2022-09-23T07:48:40.616Z,1004.18
2022-09-23T07:49:40.614Z,1004.18
2022-09-23T07:50:40.570Z,1004.18
2022-09-23T07:51:40.591Z,1004.19
2022-09-23T07:52:40.571Z,1004.20
2022-09-23T07:53:40.545Z,1004.22
2022-09-23T07:54:40.518Z,1004.23
2022-09-23T07:55:40.569Z,1004.23
2022-09-23T07:56:40.511Z,1004.23
2022-09-23T07:57:40.540Z,1004.24
2022-09-23T07:58:40.531Z,1004.25
2022-09-23T07:59:40.480Z,1004.24
2022-09-23T08:00:40.464Z,1004.24
2022-09-23T08:01:40.521Z,1004.24
2022-09-23T08:02:40.494Z,1004.25
2022-09-23T08:03:40.492Z,1004.24
2022-09-23T08:04:40.482Z,1004.24
2022-09-23T08:05:40.422Z,1004.24
2022-09-23T08:06:40.393Z,1004.24
2022-09-23T08:07:40.399Z,1004.24
2022-09-23T08:08:40.423Z,1004.25
2022-09-23T08:09:40.432Z,1004.24
2022-09-23T08:10:40.358Z,1004.25
2022-09-23T08:11:40.406Z,1004.27
2022-09-23T08:12:40.334Z,1004.28
2022-09-23T08:13:40.356Z,1004.29
2022-09-23T08:14:40.336Z,1004.31
2022-09-23T08:15:40.434Z,1004.32
2022-09-23T08:16:40.290Z,1004.33
2022-09-23T08:17:40.303Z,1004.33
2022-09-23T08:18:40.281Z,1004.34
2022-09-23T08:19:40.278Z,1004.35
2022-09-23T08:20:43.659Z,1004.34
2022-09-23T08:21:40.261Z,1004.34
2022-09-23T08:22:40.251Z,1004.33
2022-09-23T08:23:40.225Z,1004.32
2022-09-23T08:24:40.219Z,1004.30
2022-09-23T08:25:40.365Z,1004.28
2022-09-23T08:26:40.204Z,1004.28
2022-09-23T08:27:40.202Z,1004.28
2022-09-23T08:28:40.208Z,1004.25
2022-09-23T08:29:40.178Z,1004.24
2022-09-23T08:30:40.241Z,1004.23
2022-09-23T08:31:40.145Z,1004.24
2022-09-23T08:32:40.165Z,1004.24
2022-09-23T08:33:40.131Z,1004.23
2022-09-23T08:34:40.113Z,1004.22
2022-09-23T08:35:40.139Z,1004.23
2022-09-23T08:36:40.114Z,1004.22
2022-09-23T08:37:40.092Z,1004.23
2022-09-23T08:38:40.068Z,1004.24
2022-09-23T08:39:40.074Z,1004.25
2022-09-23T08:40:40.078Z,1004.25
2022-09-23T08:41:40.051Z,1004.26
2022-09-23T08:42:40.064Z,1004.25
2022-09-23T08:43:40.012Z,1004.24
2022-09-23T08:44:40.017Z,1004.24
2022-09-23T08:45:40.012Z,1004.23
2022-09-23T08:46:40.011Z,1004.23
2022-09-23T08:47:40.411Z,1004.23
2022-09-23T08:48:40.048Z,1004.22
2022-09-23T08:49:39.978Z,1004.24
2022-09-23T08:50:40.029Z,1004.23
2022-09-23T08:51:39.982Z,1004.25
2022-09-23T08:52:39.967Z,1004.26
2022-09-23T08:53:39.978Z,1004.27
2022-09-23T08:54:39.904Z,1004.26
2022-09-23T08:55:39.897Z,1004.26
2022-09-23T08:56:39.946Z,1004.25
2022-09-23T08:57:39.886Z,1004.24
2022-09-23T08:58:39.859Z,1004.23
2022-09-23T08:59:39.851Z,1004.23
2022-09-23T09:00:39.842Z,1004.24
2022-09-23T09:01:39.871Z,1004.24
2022-09-23T09:02:39.938Z,1004.24
2022-09-23T09:03:39.818Z,1004.24
2022-09-23T09:04:39.788Z,1004.23
2022-09-23T09:05:39.810Z,1004.21
2022-09-23T09:06:52.446Z,1004.20
2022-09-23T09:07:39.842Z,1004.21
2022-09-23T09:08:39.754Z,1004.19
2022-09-23T09:09:39.752Z,1004.19
2022-09-23T09:10:39.746Z,1004.18
2022-09-23T09:11:39.728Z,1004.18
2022-09-23T09:12:39.708Z,1004.18
2022-09-23T09:13:39.738Z,1004.19
2022-09-23T09:14:39.685Z,1004.18
2022-09-23T09:15:39.740Z,1004.16
2022-09-23T09:16:58.829Z,1004.15
2022-09-23T09:17:39.660Z,1004.16
2022-09-23T09:18:39.681Z,1004.18
2022-09-23T09:19:39.644Z,1004.15
2022-09-23T09:20:39.620Z,1004.15
2022-09-23T09:21:39.652Z,1004.14
2022-09-23T09:22:39.605Z,1004.14
2022-09-23T09:23:39.606Z,1004.14
2022-09-23T09:24:39.580Z,1004.12
2022-09-23T09:25:39.591Z,1004.11
2022-09-23T09:26:39.579Z,1004.10
2022-09-23T09:27:39.555Z,1004.10
2022-09-23T09:28:39.707Z,1004.09
2022-09-23T09:29:39.725Z,1004.08
2022-09-23T09:30:39.574Z,1004.09
2022-09-23T09:31:39.580Z,1004.10
2022-09-23T09:32:39.521Z,1004.10
2022-09-23T09:33:39.527Z,1004.08
2022-09-23T09:34:39.499Z,1004.07
2022-09-23T09:35:39.623Z,1004.06
2022-09-23T09:36:39.473Z,1004.05
2022-09-23T09:37:39.499Z,1004.05
2022-09-23T09:38:39.456Z,1004.03
2022-09-23T09:39:39.430Z,1004.01
2022-09-23T09:40:39.548Z,1004.00
2022-09-23T09:41:39.441Z,1003.99
2022-09-23T09:42:39.391Z,1003.96
2022-09-23T09:43:43.449Z,1003.97
2022-09-23T09:44:39.365Z,1003.97
2022-09-23T09:45:39.381Z,1003.97
2022-09-23T09:46:39.390Z,1003.97
2022-09-23T09:47:39.352Z,1003.97
2022-09-23T09:48:39.358Z,1003.96
2022-09-23T09:49:40.686Z,1003.95
2022-09-23T09:50:39.311Z,1003.94
2022-09-23T09:51:39.300Z,1003.94
2022-09-23T09:52:42.896Z,1003.94
2022-09-23T09:53:39.241Z,1003.95
2022-09-23T09:54:39.209Z,1003.95
2022-09-23T09:55:39.283Z,1003.96
2022-09-23T09:56:39.212Z,1003.96
2022-09-23T09:57:39.250Z,1003.94
2022-09-23T09:58:39.177Z,1003.94
2022-09-23T09:59:39.169Z,1003.95
2022-09-23T10:00:39.159Z,1003.94
2022-09-23T10:01:39.214Z,1003.96
2022-09-23T10:02:39.117Z,1003.95
2022-09-23T10:03:39.121Z,1003.95
2022-09-23T10:04:39.174Z,1003.94
2022-09-23T10:05:39.108Z,1003.92
2022-09-23T10:06:39.074Z,1003.90
2022-09-23T10:07:39.117Z,1003.88
2022-09-23T10:08:39.079Z,1003.88
2022-09-23T10:09:39.051Z,1003.86
2022-09-23T10:10:39.047Z,1003.86
2022-09-23T10:11:39.025Z,1003.84
2022-09-23T10:12:39.024Z,1003.84
2022-09-23T10:13:39.026Z,1003.83
2022-09-23T10:14:39.068Z,1003.83
2022-09-23T10:15:43.814Z,1003.82
2022-09-23T10:16:39.032Z,1003.82
2022-09-23T10:17:38.973Z,1003.83
2022-09-23T10:18:38.978Z,1003.83
2022-09-23T10:19:38.978Z,1003.82
2022-09-23T10:20:44.958Z,1003.80
2022-09-23T10:21:38.924Z,1003.79
2022-09-23T10:22:38.915Z,1003.78
2022-09-23T10:23:38.898Z,1003.76
2022-09-23T10:24:38.906Z,1003.75
2022-09-23T10:25:38.911Z,1003.74
2022-09-23T10:26:38.866Z,1003.74
2022-09-23T10:27:38.873Z,1003.78
2022-09-23T10:28:38.849Z,1003.77
2022-09-23T10:29:38.891Z,1003.76
2022-09-23T10:30:38.848Z,1003.77
2022-09-23T10:31:38.822Z,1003.77
2022-09-23T10:32:38.809Z,1003.76
2022-09-23T10:33:38.806Z,1003.76
2022-09-23T10:34:40.171Z,1003.77
2022-09-23T10:35:38.788Z,1003.75
2022-09-23T10:36:43.758Z,1003.77
2022-09-23T10:37:38.765Z,1003.76
2022-09-23T10:38:38.756Z,1003.75
2022-09-23T10:39:38.749Z,1003.77
2022-09-23T10:40:38.961Z,1003.76
2022-09-23T10:41:38.724Z,1003.76
2022-09-23T10:42:38.706Z,1003.77
2022-09-23T10:43:38.721Z,1003.78
2022-09-23T10:44:38.689Z,1003.77
2022-09-23T10:45:41.180Z,1003.76
2022-09-23T10:46:38.777Z,1003.77
2022-09-23T10:47:38.669Z,1003.75
2022-09-23T10:48:38.650Z,1003.75
2022-09-23T10:49:38.641Z,1003.75
2022-09-23T10:50:38.660Z,1003.74
2022-09-23T10:51:38.627Z,1003.74
2022-09-23T10:52:38.607Z,1003.72
2022-09-23T10:53:38.621Z,1003.72
2022-09-23T10:54:38.733Z,1003.71
2022-09-23T10:55:38.592Z,1003.73
2022-09-23T10:56:38.591Z,1003.72
2022-09-23T10:57:38.571Z,1003.72
2022-09-23T10:58:38.547Z,1003.71
2022-09-23T10:59:38.557Z,1003.70
2022-09-23T11:00:38.559Z,1003.72
2022-09-23T11:01:38.583Z,1003.69
2022-09-23T11:02:38.507Z,1003.70
2022-09-23T11:03:38.526Z,1003.67
2022-09-23T11:04:38.531Z,1003.67
2022-09-23T11:05:38.538Z,1003.65
2022-09-23T11:06:38.502Z,1003.63
2022-09-23T11:07:38.459Z,1003.63
2022-09-23T11:08:38.448Z,1003.64
2022-09-23T11:09:38.461Z,1003.64
2022-09-23T11:10:46.520Z,1003.62
2022-09-23T11:11:38.439Z,1003.62
2022-09-23T11:12:38.474Z,1003.60
2022-09-23T11:13:38.394Z,1003.59
2022-09-23T11:14:38.400Z,1003.59
2022-09-23T11:15:39.475Z,1003.57
2022-09-23T11:16:38.462Z,1003.55
2022-09-23T11:17:38.407Z,1003.52
2022-09-23T11:18:38.367Z,1003.50
2022-09-23T11:19:42.178Z,1003.50
2022-09-23T11:20:38.344Z,1003.47
2022-09-23T11:21:38.406Z,1003.45
2022-09-23T11:22:38.332Z,1003.44
2022-09-23T11:23:38.312Z,1003.44
2022-09-23T11:24:38.304Z,1003.42
2022-09-23T11:25:38.284Z,1003.42
2022-09-23T11:26:38.296Z,1003.41
2022-09-23T11:27:38.249Z,1003.39
2022-09-23T11:28:38.300Z,1003.40
2022-09-23T11:29:38.239Z,1003.37
2022-09-23T11:30:38.311Z,1003.39
2022-09-23T11:31:38.215Z,1003.38
2022-09-23T11:32:38.216Z,1003.36
2022-09-23T11:33:38.227Z,1003.36
2022-09-23T11:34:38.242Z,1003.37
2022-09-23T11:35:38.170Z,1003.37
2022-09-23T11:36:38.176Z,1003.38
2022-09-23T11:37:38.152Z,1003.38
2022-09-23T11:38:38.196Z,1003.37
2022-09-23T11:39:38.256Z,1003.40
2022-09-23T11:40:41.079Z,1003.36
2022-09-23T11:41:38.160Z,1003.34
2022-09-23T11:42:38.116Z,1003.37
2022-09-23T11:43:38.083Z,1003.33
2022-09-23T11:44:38.089Z,1003.32
2022-09-23T11:45:38.120Z,1003.32
2022-09-23T11:46:38.074Z,1003.31
2022-09-23T11:47:39.934Z,1003.29
2022-09-23T11:48:38.044Z,1003.29
2022-09-23T11:49:38.038Z,1003.28
2022-09-23T11:50:38.035Z,1003.28
2022-09-23T11:51:38.013Z,1003.28
2022-09-23T11:52:38.025Z,1003.26
2022-09-23T11:53:38.008Z,1003.25
2022-09-23T11:54:37.993Z,1003.24
2022-09-23T11:55:39.515Z,1003.26
2022-09-23T11:56:40.980Z,1003.25
2022-09-23T11:57:47.050Z,1003.24
2022-09-23T11:58:37.977Z,1003.23
2022-09-23T11:59:40.970Z,1003.25
2022-09-23T12:00:38.051Z,1003.25
2022-09-23T12:01:39.057Z,1003.26
2022-09-23T12:02:38.049Z,1003.25
2022-09-23T12:03:43.879Z,1003.27
2022-09-23T12:04:45.167Z,1003.30
2022-09-23T12:05:38.080Z,1003.29
2022-09-23T12:06:37.885Z,1003.26